sensor_id;sensor_type;location;lat;lon;timestamp;pressure;altitude;pressure_sealevel;temperature;humidity
32033;BME280;31720;52.638;9.216;2023-05-31T00:02:30;102400.06;;;12.57;100.00
32033;BME280;31720;52.638;9.216;2023-05-31T00:05:31;102405.34;;;12.57;100.00
32033;BME280;31720;52.638;9.216;2023-05-31T00:08:32;102395.81;;;12.53;100.00
32033;BME280;31720;52.638;9.216;2023-05-31T00:11:34;102396.13;;;12.43;100.00
32033;BME280;31720;52.638;9.216;2023-05-31T00:14:35;102404.97;;;12.42;100.00
32033;BME280;31720;52.638;9.216;2023-05-31T00:17:38;102398.84;;;12.42;100.00
32033;BME280;31720;52.638;9.216;2023-05-31T00:20:39;102402.44;;;12.39;100.00
32033;BME280;31720;52.638;9.216;2023-05-31T00:23:40;102407.66;;;12.41;100.00
32033;BME280;31720;52.638;9.216;2023-05-31T00:26:43;102411.25;;;12.38;100.00
32033;BME280;31720;52.638;9.216;2023-05-31T00:29:44;102407.75;;;12.38;100.00
32033;BME280;31720;52.638;9.216;2023-05-31T00:32:47;102404.97;;;12.42;100.00
32033;BME280;31720;52.638;9.216;2023-05-31T00:35:48;102411.22;;;12.40;100.00
32033;BME280;31720;52.638;9.216;2023-05-31T00:38:49;102412.03;;;12.42;100.00
32033;BME280;31720;52.638;9.216;2023-05-31T00:41:51;102418.25;;;12.39;100.00
32033;BME280;31720;52.638;9.216;2023-05-31T00:44:52;102420.31;;;12.31;100.00
32033;BME280;31720;52.638;9.216;2023-05-31T00:47:55;102416.69;;;12.34;100.00
32033;BME280;31720;52.638;9.216;2023-05-31T00:50:56;102413.41;;;12.27;100.00
32033;BME280;31720;52.638;9.216;2023-05-31T00:53:59;102415.13;;;12.28;100.00
32033;BME280;31720;52.638;9.216;2023-05-31T00:57:01;102420.50;;;12.25;100.00
32033;BME280;31720;52.638;9.216;2023-05-31T01:00:03;102422.19;;;12.28;100.00
32033;BME280;31720;52.638;9.216;2023-05-31T01:03:07;102419.00;;;12.18;100.00
32033;BME280;31720;52.638;9.216;2023-05-31T01:06:09;102419.38;;;12.06;100.00
32033;BME280;31720;52.638;9.216;2023-05-31T01:09:11;102416.19;;;11.96;100.00
32033;BME280;31720;52.638;9.216;2023-05-31T01:12:18;102408.34;;;11.95;100.00
32033;BME280;31720;52.638;9.216;2023-05-31T01:15:23;102412.56;;;11.99;100.00
32033;BME280;31720;52.638;9.216;2023-05-31T01:18:30;102410.16;;;11.92;100.00
32033;BME280;31720;52.638;9.216;2023-05-31T01:21:44;102415.66;;;11.85;100.00
32033;BME280;31720;52.638;9.216;2023-05-31T01:24:54;102408.63;;;11.85;100.00
32033;BME280;31720;52.638;9.216;2023-05-31T01:28:04;102401.59;;;11.86;100.00
32033;BME280;31720;52.638;9.216;2023-05-31T01:31:07;102411.16;;;11.88;100.00
32033;BME280;31720;52.638;9.216;2023-05-31T01:34:10;102409.25;;;11.93;100.00
32033;BME280;31720;52.638;9.216;2023-05-31T01:37:12;102403.94;;;11.95;100.00
32033;BME280;31720;52.638;9.216;2023-05-31T01:40:13;102411.88;;;11.93;100.00
32033;BME280;31720;52.638;9.216;2023-05-31T01:43:19;102410.09;;;11.94;100.00
32033;BME280;31720;52.638;9.216;2023-05-31T01:46:21;102406.59;;;11.93;100.00
32033;BME280;31720;52.638;9.216;2023-05-31T01:49:23;102404.94;;;11.91;100.00
32033;BME280;31720;52.638;9.216;2023-05-31T01:52:25;102399.84;;;11.85;100.00
32033;BME280;31720;52.638;9.216;2023-05-31T01:55:27;102400.94;;;11.78;100.00
32033;BME280;31720;52.638;9.216;2023-05-31T01:58:30;102400.88;;;11.79;100.00
32033;BME280;31720;52.638;9.216;2023-05-31T02:01:32;102400.84;;;11.82;100.00
32033;BME280;31720;52.638;9.216;2023-05-31T02:04:33;102387.78;;;11.78;100.00
32033;BME280;31720;52.638;9.216;2023-05-31T02:07:35;102386.16;;;11.74;100.00
32033;BME280;31720;52.638;9.216;2023-05-31T02:10:36;102393.47;;;11.64;100.00
32033;BME280;31720;52.638;9.216;2023-05-31T02:13:39;102390.94;;;11.61;100.00
32033;BME280;31720;52.638;9.216;2023-05-31T02:16:40;102400.66;;;11.59;100.00
32033;BME280;31720;52.638;9.216;2023-05-31T02:19:42;102387.66;;;11.54;100.00
32033;BME280;31720;52.638;9.216;2023-05-31T02:22:47;102401.81;;;11.50;100.00
32033;BME280;31720;52.638;9.216;2023-05-31T02:25:49;102393.91;;;11.50;100.00
32033;BME280;31720;52.638;9.216;2023-05-31T02:28:52;102387.81;;;11.48;100.00
32033;BME280;31720;52.638;9.216;2023-05-31T02:31:53;102397.41;;;11.51;100.00
32033;BME280;31720;52.638;9.216;2023-05-31T02:34:54;102393.28;;;11.42;100.00
32033;BME280;31720;52.638;9.216;2023-05-31T02:37:56;102384.59;;;11.38;100.00
32033;BME280;31720;52.638;9.216;2023-05-31T02:40:57;102387.25;;;11.38;100.00
32033;BME280;31720;52.638;9.216;2023-05-31T02:44:00;102393.13;;;11.47;100.00
32033;BME280;31720;52.638;9.216;2023-05-31T02:47:01;102388.81;;;11.44;100.00
32033;BME280;31720;52.638;9.216;2023-05-31T02:50:03;102397.09;;;11.32;100.00
32033;BME280;31720;52.638;9.216;2023-05-31T02:53:04;102387.59;;;11.26;100.00
32033;BME280;31720;52.638;9.216;2023-05-31T02:56:06;102385.16;;;11.20;100.00
32033;BME280;31720;52.638;9.216;2023-05-31T02:59:09;102394.03;;;11.17;100.00
32033;BME280;31720;52.638;9.216;2023-05-31T03:02:11;102396.72;;;11.14;100.00
32033;BME280;31720;52.638;9.216;2023-05-31T03:05:12;102388.84;;;11.14;100.00
32033;BME280;31720;52.638;9.216;2023-05-31T03:08:14;102387.00;;;11.16;100.00
32033;BME280;31720;52.638;9.216;2023-05-31T03:11:15;102384.50;;;11.12;100.00
32033;BME280;31720;52.638;9.216;2023-05-31T03:14:18;102380.22;;;11.09;100.00
32033;BME280;31720;52.638;9.216;2023-05-31T03:17:19;102382.84;;;11.09;100.00
32033;BME280;31720;52.638;9.216;2023-05-31T03:20:20;102386.66;;;10.99;100.00
32033;BME280;31720;52.638;9.216;2023-05-31T03:23:22;102386.88;;;10.91;100.00
32033;BME280;31720;52.638;9.216;2023-05-31T03:26:23;102385.97;;;10.92;100.00
32033;BME280;31720;52.638;9.216;2023-05-31T03:29:27;102387.53;;;10.98;100.00
32033;BME280;31720;52.638;9.216;2023-05-31T03:32:28;102383.28;;;10.94;100.00
32033;BME280;31720;52.638;9.216;2023-05-31T03:35:30;102385.78;;;10.99;100.00
32033;BME280;31720;52.638;9.216;2023-05-31T03:38:31;102382.41;;;10.93;100.00
32033;BME280;31720;52.638;9.216;2023-05-31T03:41:32;102393.78;;;10.96;100.00
32033;BME280;31720;52.638;9.216;2023-05-31T03:44:35;102387.72;;;10.92;100.00
32033;BME280;31720;52.638;9.216;2023-05-31T03:47:36;102388.72;;;10.88;100.00
32033;BME280;31720;52.638;9.216;2023-05-31T03:50:38;102388.66;;;10.89;100.00
32033;BME280;31720;52.638;9.216;2023-05-31T03:53:40;102381.69;;;10.88;100.00
32033;BME280;31720;52.638;9.216;2023-05-31T03:56:41;102386.03;;;10.89;100.00
32033;BME280;31720;52.638;9.216;2023-05-31T03:59:44;102382.53;;;10.89;100.00
32033;BME280;31720;52.638;9.216;2023-05-31T04:02:45;102381.75;;;10.85;100.00
32033;BME280;31720;52.638;9.216;2023-05-31T04:05:46;102380.84;;;10.88;100.00
32033;BME280;31720;52.638;9.216;2023-05-31T04:08:48;102380.84;;;10.88;100.00
32033;BME280;31720;52.638;9.216;2023-05-31T04:11:49;102380.84;;;10.88;100.00
32033;BME280;31720;52.638;9.216;2023-05-31T04:14:52;102386.09;;;10.88;100.00
32033;BME280;31720;52.638;9.216;2023-05-31T04:17:53;102386.94;;;10.88;100.00
32033;BME280;31720;52.638;9.216;2023-05-31T04:20:55;102384.25;;;10.91;100.00
32033;BME280;31720;52.638;9.216;2023-05-31T04:23:56;102393.00;;;10.92;100.00
32033;BME280;31720;52.638;9.216;2023-05-31T04:26:58;102389.44;;;10.95;100.00
32033;BME280;31720;52.638;9.216;2023-05-31T04:30:00;102384.97;;;10.97;100.00
32033;BME280;31720;52.638;9.216;2023-05-31T04:33:03;102396.28;;;10.99;100.00
32033;BME280;31720;52.638;9.216;2023-05-31T04:36:05;102395.41;;;11.00;100.00
32033;BME280;31720;52.638;9.216;2023-05-31T04:39:08;102397.22;;;10.98;100.00
32033;BME280;31720;52.638;9.216;2023-05-31T04:42:14;102395.63;;;10.92;100.00
32033;BME280;31720;52.638;9.216;2023-05-31T04:45:17;102394.84;;;10.88;100.00
32033;BME280;31720;52.638;9.216;2023-05-31T04:48:19;102397.41;;;10.90;100.00
32033;BME280;31720;52.638;9.216;2023-05-31T04:51:20;102400.88;;;10.92;100.00
32033;BME280;31720;52.638;9.216;2023-05-31T04:54:22;102391.28;;;10.89;100.00
32033;BME280;31720;52.638;9.216;2023-05-31T04:57:23;102402.72;;;10.88;100.00
32033;BME280;31720;52.638;9.216;2023-05-31T05:00:28;102409.84;;;10.85;100.00
32033;BME280;31720;52.638;9.216;2023-05-31T05:03:29;102400.97;;;10.89;100.00
32033;BME280;31720;52.638;9.216;2023-05-31T05:06:31;102406.09;;;10.93;100.00
32033;BME280;31720;52.638;9.216;2023-05-31T05:09:33;102412.91;;;11.01;100.00
32033;BME280;31720;52.638;9.216;2023-05-31T05:12:34;102410.28;;;11.01;100.00
32033;BME280;31720;52.638;9.216;2023-05-31T05:15:37;102412.06;;;10.99;100.00
32033;BME280;31720;52.638;9.216;2023-05-31T05:18:40;102409.28;;;11.05;100.00
32033;BME280;31720;52.638;9.216;2023-05-31T05:21:41;102409.44;;;11.00;100.00
32033;BME280;31720;52.638;9.216;2023-05-31T05:24:42;102413.78;;;11.01;100.00
32033;BME280;31720;52.638;9.216;2023-05-31T05:27:43;102417.00;;;11.11;100.00
32033;BME280;31720;52.638;9.216;2023-05-31T05:30:46;102404.81;;;11.08;100.00
32033;BME280;31720;52.638;9.216;2023-05-31T05:33:47;102403.78;;;11.14;100.00
32033;BME280;31720;52.638;9.216;2023-05-31T05:36:49;102415.88;;;11.20;100.00
32033;BME280;31720;52.638;9.216;2023-05-31T05:39:52;102414.03;;;11.23;100.00
32033;BME280;31720;52.638;9.216;2023-05-31T05:42:53;102421.81;;;11.26;100.00
32033;BME280;31720;52.638;9.216;2023-05-31T05:45:56;102418.91;;;11.35;100.00
32033;BME280;31720;52.638;9.216;2023-05-31T05:48:57;102414.41;;;11.40;100.00
32033;BME280;31720;52.638;9.216;2023-05-31T05:51:59;102403.81;;;11.42;100.00
32033;BME280;31720;52.638;9.216;2023-05-31T05:55:00;102405.34;;;11.49;100.00
32033;BME280;31720;52.638;9.216;2023-05-31T05:58:01;102405.44;;;11.46;100.00
32033;BME280;31720;52.638;9.216;2023-05-31T06:01:04;102408.78;;;11.51;100.00
32033;BME280;31720;52.638;9.216;2023-05-31T06:04:05;102406.97;;;11.53;100.00
32033;BME280;31720;52.638;9.216;2023-05-31T06:07:07;102410.38;;;11.57;100.00
32033;BME280;31720;52.638;9.216;2023-05-31T06:10:09;102416.50;;;11.57;100.00
32033;BME280;31720;52.638;9.216;2023-05-31T06:13:10;102410.13;;;11.64;100.00
32033;BME280;31720;52.638;9.216;2023-05-31T06:16:14;102410.94;;;11.66;100.00
32033;BME280;31720;52.638;9.216;2023-05-31T06:19:15;102421.97;;;11.79;100.00
32033;BME280;31720;52.638;9.216;2023-05-31T06:22:17;102413.19;;;11.79;100.00
32033;BME280;31720;52.638;9.216;2023-05-31T06:25:18;102418.28;;;11.85;100.00
32033;BME280;31720;52.638;9.216;2023-05-31T06:28:20;102418.16;;;11.89;100.00
32033;BME280;31720;52.638;9.216;2023-05-31T06:31:23;102412.78;;;11.92;100.00
32033;BME280;31720;52.638;9.216;2023-05-31T06:34:24;102416.97;;;12.00;100.00
32033;BME280;31720;52.638;9.216;2023-05-31T06:37:26;102414.19;;;12.04;100.00
32033;BME280;31720;52.638;9.216;2023-05-31T06:40:27;102413.03;;;12.13;100.00
32033;BME280;31720;52.638;9.216;2023-05-31T06:43:28;102411.81;;;12.22;100.00
32033;BME280;31720;52.638;9.216;2023-05-31T06:46:31;102400.22;;;12.27;100.00
32033;BME280;31720;52.638;9.216;2023-05-31T06:49:32;102404.38;;;12.34;100.00
32033;BME280;31720;52.638;9.216;2023-05-31T06:52:34;102399.78;;;12.39;100.00
32033;BME280;31720;52.638;9.216;2023-05-31T06:55:35;102403.16;;;12.44;100.00
32033;BME280;31720;52.638;9.216;2023-05-31T06:58:36;102401.94;;;12.53;100.00
32033;BME280;31720;52.638;9.216;2023-05-31T07:01:39;102399.88;;;12.63;100.00
32033;BME280;31720;52.638;9.216;2023-05-31T07:04:40;102392.25;;;12.79;100.00
32033;BME280;31720;52.638;9.216;2023-05-31T07:07:42;102387.50;;;12.88;100.00
32033;BME280;31720;52.638;9.216;2023-05-31T07:10:43;102386.41;;;12.94;100.00
32033;BME280;31720;52.638;9.216;2023-05-31T07:13:45;102384.31;;;13.04;100.00
32033;BME280;31720;52.638;9.216;2023-05-31T07:16:48;102385.91;;;13.08;100.00
32033;BME280;31720;52.638;9.216;2023-05-31T07:19:49;102390.81;;;13.17;100.00
32033;BME280;31720;52.638;9.216;2023-05-31T07:22:51;102397.72;;;13.23;100.00
32033;BME280;31720;52.638;9.216;2023-05-31T07:25:52;102389.47;;;13.30;100.00
32033;BME280;31720;52.638;9.216;2023-05-31T07:28:54;102386.63;;;13.36;100.00
32033;BME280;31720;52.638;9.216;2023-05-31T07:31:56;102393.16;;;13.50;100.00
32033;BME280;31720;52.638;9.216;2023-05-31T07:34:58;102385.75;;;13.58;100.00
32033;BME280;31720;52.638;9.216;2023-05-31T07:38:00;102388.41;;;13.58;100.00
32033;BME280;31720;52.638;9.216;2023-05-31T07:41:01;102385.53;;;13.64;100.00
32033;BME280;31720;52.638;9.216;2023-05-31T07:44:03;102388.56;;;13.77;100.00
32033;BME280;31720;52.638;9.216;2023-05-31T07:47:07;102380.38;;;13.83;100.00
32033;BME280;31720;52.638;9.216;2023-05-31T07:50:08;102378.38;;;13.88;100.00
32033;BME280;31720;52.638;9.216;2023-05-31T07:53:10;102386.00;;;13.95;100.00
32033;BME280;31720;52.638;9.216;2023-05-31T07:56:11;102383.78;;;14.07;100.00
32033;BME280;31720;52.638;9.216;2023-05-31T07:59:13;102385.91;;;14.19;100.00
32033;BME280;31720;52.638;9.216;2023-05-31T08:02:18;102386.75;;;14.19;100.00
32033;BME280;31720;52.638;9.216;2023-05-31T08:05:19;102385.31;;;14.33;100.00
32033;BME280;31720;52.638;9.216;2023-05-31T08:08:21;102380.88;;;14.33;100.00
32033;BME280;31720;52.638;9.216;2023-05-31T08:11:22;102374.28;;;14.43;100.00
32033;BME280;31720;52.638;9.216;2023-05-31T08:14:23;102376.78;;;14.46;100.00
32033;BME280;31720;52.638;9.216;2023-05-31T08:17:26;102368.66;;;14.71;100.00
32033;BME280;31720;52.638;9.216;2023-05-31T08:20:28;102366.91;;;14.91;100.00
32033;BME280;31720;52.638;9.216;2023-05-31T08:23:29;102360.91;;;15.06;100.00
32033;BME280;31720;52.638;9.216;2023-05-31T08:26:31;102371.16;;;15.14;100.00
32033;BME280;31720;52.638;9.216;2023-05-31T08:29:33;102359.06;;;15.08;100.00
32033;BME280;31720;52.638;9.216;2023-05-31T08:32:36;102359.91;;;15.09;100.00
32033;BME280;31720;52.638;9.216;2023-05-31T08:35:37;102355.53;;;15.08;100.00
32033;BME280;31720;52.638;9.216;2023-05-31T08:38:39;102352.25;;;15.21;100.00
32033;BME280;31720;52.638;9.216;2023-05-31T08:41:47;102347.31;;;15.33;100.00
32033;BME280;31720;52.638;9.216;2023-05-31T08:44:50;102343.72;;;15.34;100.00
32033;BME280;31720;52.638;9.216;2023-05-31T08:48:02;102347.34;;;15.50;100.00
32033;BME280;31720;52.638;9.216;2023-05-31T08:51:06;102340.81;;;15.57;100.00
32033;BME280;31720;52.638;9.216;2023-05-31T08:54:08;102343.44;;;15.57;100.00
32033;BME280;31720;52.638;9.216;2023-05-31T08:57:11;102337.31;;;15.57;100.00
32033;BME280;31720;52.638;9.216;2023-05-31T09:00:14;102334.84;;;15.71;100.00
32033;BME280;31720;52.638;9.216;2023-05-31T09:03:18;102334.41;;;15.80;100.00
32033;BME280;31720;52.638;9.216;2023-05-31T09:06:19;102337.84;;;15.82;100.00
32033;BME280;31720;52.638;9.216;2023-05-31T09:09:21;102333.50;;;15.81;100.00
32033;BME280;31720;52.638;9.216;2023-05-31T09:12:22;102327.56;;;15.93;100.00
32033;BME280;31720;52.638;9.216;2023-05-31T09:15:24;102331.38;;;16.22;100.00
32033;BME280;31720;52.638;9.216;2023-05-31T09:18:35;102332.69;;;16.31;100.00
32033;BME280;31720;52.638;9.216;2023-05-31T09:21:38;102330.91;;;16.32;100.00
32033;BME280;31720;52.638;9.216;2023-05-31T09:24:48;102330.34;;;16.42;100.00
32033;BME280;31720;52.638;9.216;2023-05-31T09:27:50;102320.19;;;16.51;100.00
32033;BME280;31720;52.638;9.216;2023-05-31T09:31:01;102321.00;;;16.68;100.00
32033;BME280;31720;52.638;9.216;2023-05-31T09:34:22;102321.94;;;16.67;100.00
32033;BME280;31720;52.638;9.216;2023-05-31T09:37:24;102323.94;;;16.80;100.00
32033;BME280;31720;52.638;9.216;2023-05-31T09:40:28;102321.88;;;16.85;100.00
32033;BME280;31720;52.638;9.216;2023-05-31T09:43:30;102310.59;;;16.97;100.00
32033;BME280;31720;52.638;9.216;2023-05-31T09:46:31;102304.88;;;17.05;100.00
32033;BME280;31720;52.638;9.216;2023-05-31T09:49:36;102315.44;;;17.22;100.00
32033;BME280;31720;52.638;9.216;2023-05-31T09:52:37;102311.47;;;17.45;100.00
32033;BME280;31720;52.638;9.216;2023-05-31T09:55:39;102310.59;;;17.44;100.00
32033;BME280;31720;52.638;9.216;2023-05-31T09:58:41;102306.78;;;17.64;100.00
32033;BME280;31720;52.638;9.216;2023-05-31T10:01:43;102305.66;;;17.68;100.00
32033;BME280;31720;52.638;9.216;2023-05-31T10:04:46;102300.78;;;17.61;100.00
32033;BME280;31720;52.638;9.216;2023-05-31T10:07:48;102303.13;;;17.51;100.00
32033;BME280;31720;52.638;9.216;2023-05-31T10:10:50;102292.38;;;17.53;100.00
32033;BME280;31720;52.638;9.216;2023-05-31T10:13:56;102296.63;;;17.71;100.00
32033;BME280;31720;52.638;9.216;2023-05-31T10:17:01;102296.50;;;18.04;100.00
32033;BME280;31720;52.638;9.216;2023-05-31T10:20:06;102287.16;;;17.97;100.00
32033;BME280;31720;52.638;9.216;2023-05-31T10:23:13;102281.38;;;18.05;100.00
32033;BME280;31720;52.638;9.216;2023-05-31T10:26:17;102270.91;;;18.02;99.18
32033;BME280;31720;52.638;9.216;2023-05-31T10:29:21;102280.25;;;18.09;99.83
32033;BME280;31720;52.638;9.216;2023-05-31T10:32:26;102274.38;;;18.18;96.64
32033;BME280;31720;52.638;9.216;2023-05-31T10:35:29;102274.84;;;18.24;98.20
32033;BME280;31720;52.638;9.216;2023-05-31T10:38:35;102270.47;;;18.23;100.00
32033;BME280;31720;52.638;9.216;2023-05-31T10:41:44;102269.34;;;18.28;100.00
32033;BME280;31720;52.638;9.216;2023-05-31T10:44:57;102269.06;;;18.32;100.00
32033;BME280;31720;52.638;9.216;2023-05-31T10:48:03;102265.53;;;18.46;100.00
32033;BME280;31720;52.638;9.216;2023-05-31T10:51:10;102263.44;;;18.51;100.00
32033;BME280;31720;52.638;9.216;2023-05-31T10:54:17;102251.06;;;18.64;100.00
32033;BME280;31720;52.638;9.216;2023-05-31T10:57:19;102247.38;;;18.81;97.21
32033;BME280;31720;52.638;9.216;2023-05-31T11:00:21;102250.31;;;18.77;99.00
32033;BME280;31720;52.638;9.216;2023-05-31T11:03:23;102239.84;;;18.73;100.00
32033;BME280;31720;52.638;9.216;2023-05-31T11:06:27;102246.66;;;18.92;95.05
32033;BME280;31720;52.638;9.216;2023-05-31T11:09:31;102244.00;;;18.92;97.32
32033;BME280;31720;52.638;9.216;2023-05-31T11:12:34;102247.47;;;19.07;96.91
32033;BME280;31720;52.638;9.216;2023-05-31T11:15:39;102238.56;;;19.20;99.14
32033;BME280;31720;52.638;9.216;2023-05-31T11:18:41;102234.97;;;19.21;95.08
32033;BME280;31720;52.638;9.216;2023-05-31T11:21:47;102236.72;;;19.35;94.90
32033;BME280;31720;52.638;9.216;2023-05-31T11:24:50;102234.59;;;19.40;92.40
32033;BME280;31720;52.638;9.216;2023-05-31T11:28:05;102240.91;;;19.52;94.13
32033;BME280;31720;52.638;9.216;2023-05-31T11:31:06;102225.75;;;19.52;91.04
32033;BME280;31720;52.638;9.216;2023-05-31T11:34:17;102222.28;;;19.65;91.81
32033;BME280;31720;52.638;9.216;2023-05-31T11:37:20;102219.13;;;19.98;93.58
32033;BME280;31720;52.638;9.216;2023-05-31T11:40:22;102214.22;;;20.17;92.89
32033;BME280;31720;52.638;9.216;2023-05-31T11:43:25;102211.09;;;20.36;93.63
32033;BME280;31720;52.638;9.216;2023-05-31T11:46:26;102207.97;;;20.42;89.12
32033;BME280;31720;52.638;9.216;2023-05-31T11:49:29;102204.34;;;20.56;90.45
32033;BME280;31720;52.638;9.216;2023-05-31T11:52:33;102205.91;;;20.71;86.65
32033;BME280;31720;52.638;9.216;2023-05-31T11:55:34;102202.28;;;20.72;85.63
32033;BME280;31720;52.638;9.216;2023-05-31T11:58:37;102201.28;;;20.73;86.39
32033;BME280;31720;52.638;9.216;2023-05-31T12:01:38;102197.41;;;20.90;89.80
32033;BME280;31720;52.638;9.216;2023-05-31T12:04:41;102197.22;;;21.05;89.10
32033;BME280;31720;52.638;9.216;2023-05-31T12:07:45;102194.13;;;21.22;86.18
32033;BME280;31720;52.638;9.216;2023-05-31T12:10:46;102186.31;;;21.43;81.55
32033;BME280;31720;52.638;9.216;2023-05-31T12:16:49;102179.69;;;21.71;81.59
32033;BME280;31720;52.638;9.216;2023-05-31T12:19:51;102176.88;;;21.61;82.05
32033;BME280;31720;52.638;9.216;2023-05-31T12:23:10;102175.22;;;21.83;82.77
32033;BME280;31720;52.638;9.216;2023-05-31T12:26:12;102175.22;;;21.71;70.89
32033;BME280;31720;52.638;9.216;2023-05-31T12:29:13;102169.25;;;21.68;57.90
32033;BME280;31720;52.638;9.216;2023-05-31T12:32:16;102167.06;;;21.73;62.11
32033;BME280;31720;52.638;9.216;2023-05-31T12:35:19;102166.47;;;21.92;60.74
32033;BME280;31720;52.638;9.216;2023-05-31T12:38:28;102156.00;;;22.00;56.03
32033;BME280;31720;52.638;9.216;2023-05-31T12:41:29;102155.88;;;22.01;56.71
32033;BME280;31720;52.638;9.216;2023-05-31T12:44:32;102155.94;;;22.13;57.25
32033;BME280;31720;52.638;9.216;2023-05-31T12:47:33;102147.25;;;22.20;56.32
32033;BME280;31720;52.638;9.216;2023-05-31T12:50:35;102147.88;;;22.24;55.15
32033;BME280;31720;52.638;9.216;2023-05-31T12:53:39;102144.56;;;22.20;59.04
32033;BME280;31720;52.638;9.216;2023-05-31T12:56:41;102135.47;;;22.23;53.21
32033;BME280;31720;52.638;9.216;2023-05-31T12:59:42;102140.91;;;22.44;54.05
32033;BME280;31720;52.638;9.216;2023-05-31T13:02:43;102138.91;;;22.68;59.62
32033;BME280;31720;52.638;9.216;2023-05-31T13:05:45;102135.19;;;22.81;55.80
32033;BME280;31720;52.638;9.216;2023-05-31T13:08:47;102126.44;;;22.90;57.25
32033;BME280;31720;52.638;9.216;2023-05-31T13:11:49;102130.28;;;22.97;54.52
32033;BME280;31720;52.638;9.216;2023-05-31T13:14:51;102126.19;;;23.14;51.47
32033;BME280;31720;52.638;9.216;2023-05-31T13:17:53;102118.25;;;23.33;51.64
32033;BME280;31720;52.638;9.216;2023-05-31T13:20:54;102123.63;;;23.33;50.76
32033;BME280;31720;52.638;9.216;2023-05-31T13:23:57;102115.13;;;23.49;51.88
32033;BME280;31720;52.638;9.216;2023-05-31T13:26:58;102113.16;;;23.72;57.05
32033;BME280;31720;52.638;9.216;2023-05-31T13:30:00;102110.38;;;23.83;51.83
32033;BME280;31720;52.638;9.216;2023-05-31T13:33:02;102111.72;;;23.68;48.68
32033;BME280;31720;52.638;9.216;2023-05-31T13:36:03;102110.03;;;23.67;50.28
32033;BME280;31720;52.638;9.216;2023-05-31T13:39:06;102099.19;;;23.57;50.46
32033;BME280;31720;52.638;9.216;2023-05-31T13:42:08;102093.22;;;23.44;50.85
32033;BME280;31720;52.638;9.216;2023-05-31T13:45:10;102100.28;;;23.24;50.03
32033;BME280;31720;52.638;9.216;2023-05-31T13:48:11;102091.94;;;23.48;53.21
32033;BME280;31720;52.638;9.216;2023-05-31T13:51:14;102092.63;;;23.71;47.91
32033;BME280;31720;52.638;9.216;2023-05-31T13:54:18;102091.88;;;23.59;47.86
32033;BME280;31720;52.638;9.216;2023-05-31T13:57:19;102076.56;;;23.50;50.89
32033;BME280;31720;52.638;9.216;2023-05-31T14:00:20;102083.56;;;23.41;50.06
32033;BME280;31720;52.638;9.216;2023-05-31T14:03:22;102087.69;;;23.66;49.71
32033;BME280;31720;52.638;9.216;2023-05-31T14:06:23;102070.47;;;23.69;51.31
32033;BME280;31720;52.638;9.216;2023-05-31T14:09:26;102067.38;;;23.73;48.35
32033;BME280;31720;52.638;9.216;2023-05-31T14:12:27;102066.31;;;23.95;51.58
32033;BME280;31720;52.638;9.216;2023-05-31T14:15:28;102057.84;;;24.00;48.18
32033;BME280;31720;52.638;9.216;2023-05-31T14:18:30;102061.81;;;24.05;48.75
32033;BME280;31720;52.638;9.216;2023-05-31T14:21:31;102045.13;;;24.12;49.11
32033;BME280;31720;52.638;9.216;2023-05-31T14:24:34;102053.78;;;24.15;46.72
32033;BME280;31720;52.638;9.216;2023-05-31T14:27:35;102049.16;;;24.27;47.51
32033;BME280;31720;52.638;9.216;2023-05-31T14:30:37;102046.44;;;24.17;44.56
32033;BME280;31720;52.638;9.216;2023-05-31T14:33:38;102035.41;;;24.11;45.77
32033;BME280;31720;52.638;9.216;2023-05-31T14:36:40;102038.94;;;24.11;44.19
32033;BME280;31720;52.638;9.216;2023-05-31T14:39:42;102040.16;;;23.97;44.92
32033;BME280;31720;52.638;9.216;2023-05-31T14:42:44;102032.69;;;24.01;45.44
32033;BME280;31720;52.638;9.216;2023-05-31T14:45:45;102023.94;;;23.99;44.49
32033;BME280;31720;52.638;9.216;2023-05-31T14:48:47;102025.84;;;23.77;45.03
32033;BME280;31720;52.638;9.216;2023-05-31T14:51:49;102020.47;;;23.68;47.92
32033;BME280;31720;52.638;9.216;2023-05-31T14:54:52;102010.63;;;23.88;45.62
32033;BME280;31720;52.638;9.216;2023-05-31T14:57:53;102010.59;;;23.78;46.68
32033;BME280;31720;52.638;9.216;2023-05-31T15:00:54;102012.88;;;23.83;45.85
32033;BME280;31720;52.638;9.216;2023-05-31T15:03:56;102005.16;;;24.09;47.33
32033;BME280;31720;52.638;9.216;2023-05-31T15:06:57;102006.25;;;24.06;45.27
32033;BME280;31720;52.638;9.216;2023-05-31T15:10:00;102004.28;;;23.98;44.99
32033;BME280;31720;52.638;9.216;2023-05-31T15:13:02;101992.66;;;23.88;46.16
32033;BME280;31720;52.638;9.216;2023-05-31T15:16:04;101992.53;;;23.90;45.35
32033;BME280;31720;52.638;9.216;2023-05-31T15:19:05;101997.34;;;23.86;46.77
32033;BME280;31720;52.638;9.216;2023-05-31T15:22:08;101986.84;;;23.73;49.64
32033;BME280;31720;52.638;9.216;2023-05-31T15:25:11;101984.91;;;23.85;49.15
32033;BME280;31720;52.638;9.216;2023-05-31T15:28:14;101976.28;;;23.91;48.89
32033;BME280;31720;52.638;9.216;2023-05-31T15:31:16;101981.09;;;23.97;49.68
32033;BME280;31720;52.638;9.216;2023-05-31T15:34:17;101979.97;;;23.90;47.72
32033;BME280;31720;52.638;9.216;2023-05-31T15:37:18;101971.34;;;23.96;47.98
32033;BME280;31720;52.638;9.216;2023-05-31T15:40:21;101975.31;;;24.02;47.34
32033;BME280;31720;52.638;9.216;2023-05-31T15:43:23;101972.59;;;23.92;46.06
32033;BME280;31720;52.638;9.216;2023-05-31T15:46:24;101964.53;;;23.83;47.68
32033;BME280;31720;52.638;9.216;2023-05-31T15:49:25;101962.63;;;23.64;46.37